Time;durP1;ratioP1;P1;durP2;ratioP2;P2;SDS_P1;SDS_P2;PMS_P1;PMS_P2;Temp;Humidity;BMP_temperature;BMP_pressure;BME280_temperature;BME280_humidity;BME280_pressure;Samples;Min_cycle;Max_cycle;Signal;HPM_P1;HPM_P2
2022/06/17 05:12:17;;;;;;;11.13;5.80;;;;;;;19.28;54.89;95213.69;5008162;28;20240;-62
2022/06/17 05:14:53;;;;;;;11.32;6.93;;;;;;;19.11;55.07;95215.84;5024356;28;20229;-67
2022/06/17 05:17:19;;;;;;;9.13;8.02;;;;;;;19.18;53.92;95217.53;5007528;28;20218;-66
2022/06/17 05:19:45;;;;;;;8.40;5.55;;;;;;;19.39;53.15;95215.75;5004377;28;20378;-66
2022/06/17 05:22:19;;;;;;;6.15;5.55;;;;;;;19.35;53.25;95215.34;5007031;28;20202;-65
2022/06/17 05:24:44;;;;;;;8.38;5.82;;;;;;;19.46;53.50;95205.94;5010415;28;20300;-63
2022/06/17 05:27:10;;;;;;;5.55;4.90;;;;;;;19.53;53.27;95211.25;5010102;28;20296;-63
2022/06/17 05:29:36;;;;;;;6.47;5.05;;;;;;;19.43;53.17;95211.66;5008255;28;20455;-62
2022/06/17 05:32:01;;;;;;;6.28;5.72;;;;;;;19.44;53.26;95210.63;5007970;28;20225;-65
2022/06/17 05:34:27;;;;;;;6.25;5.65;;;;;;;19.52;53.12;95213.13;5007854;28;20304;-66
2022/06/17 05:36:52;;;;;;;7.13;4.80;;;;;;;19.55;53.59;95210.03;5023064;28;20493;-65
2022/06/17 05:39:18;;;;;;;8.25;5.30;;;;;;;19.53;53.34;95203.25;5010361;28;20233;-66
2022/06/17 05:41:43;;;;;;;6.90;5.07;;;;;;;19.59;52.96;95210.44;5013708;28;20220;-68
2022/06/17 05:44:09;;;;;;;7.20;5.40;;;;;;;19.69;52.74;95202.91;5034848;28;20221;-69
2022/06/17 05:46:34;;;;;;;6.70;5.07;;;;;;;19.75;52.28;95187.91;5025306;28;20210;-62
2022/06/17 05:49:00;;;;;;;5.80;5.20;;;;;;;19.86;52.42;95194.50;5041311;28;20316;-64
2022/06/17 05:51:27;;;;;;;7.57;5.50;;;;;;;19.78;52.89;95192.84;5030795;28;20225;-68
2022/06/17 05:53:53;;;;;;;6.80;5.20;;;;;;;19.85;52.37;95188.34;5052305;28;20225;-63
2022/06/17 05:56:18;;;;;;;6.13;5.25;;;;;;;19.96;51.83;95197.59;5058048;28;20221;-66
2022/06/17 05:58:44;;;;;;;7.65;5.65;;;;;;;20.00;51.58;95194.31;5057215;28;20201;-66
2022/06/17 06:01:10;;;;;;;7.70;5.35;;;;;;;20.01;51.78;95190.59;5058461;28;20197;-70
2022/06/17 06:03:35;;;;;;;10.20;6.15;;;;;;;19.93;52.78;95193.47;5052030;28;20229;-67
2022/06/17 06:06:01;;;;;;;8.30;5.70;;;;;;;20.02;52.66;95192.25;5053135;28;20226;-69
2022/06/17 06:08:27;;;;;;;6.93;5.93;;;;;;;20.00;53.73;95193.50;5055608;28;20286;-64
2022/06/17 06:10:52;;;;;;;10.05;6.70;;;;;;;20.09;53.50;95192.25;5053219;28;20244;-67
2022/06/17 06:13:22;;;;;;;8.73;6.43;;;;;;;20.35;51.79;95182.56;5055687;28;20295;-66
2022/06/17 06:15:50;;;;;;;22.45;12.20;;;;;;;20.28;52.79;95180.72;5059515;28;20241;-66
2022/06/17 06:18:25;;;;;;;11.93;7.97;;;;;;;20.26;52.17;95193.47;5057924;28;20309;-66
2022/06/17 06:20:51;;;;;;;8.02;6.53;;;;;;;20.46;51.90;95192.59;5051924;28;20274;-68
2022/06/17 06:23:16;;;;;;;8.18;6.25;;;;;;;20.68;50.97;95191.34;5059085;28;20213;-66
2022/06/17 06:25:42;;;;;;;6.68;5.82;;;;;;;20.55;50.83;95191.38;5058976;28;20337;-68
2022/06/17 06:28:15;;;;;;;8.07;5.75;;;;;;;20.42;51.66;95191.38;5058972;28;20236;-66
2022/06/17 06:30:40;;;;;;;7.90;5.82;;;;;;;20.33;52.49;95193.44;5053198;28;20244;-66
2022/06/17 06:33:08;;;;;;;7.90;5.95;;;;;;;20.36;52.22;95189.53;5051199;28;20229;-69
2022/06/17 06:35:35;;;;;;;10.13;5.32;;;;;;;20.50;51.45;95185.78;5053335;28;20273;-68
2022/06/17 06:38:01;;;;;;;9.40;5.60;;;;;;;20.66;50.89;95185.41;5052425;28;20243;-70
2022/06/17 06:40:28;;;;;;;7.50;5.25;;;;;;;20.87;49.53;95178.94;5055543;28;20309;-68
2022/06/17 06:42:55;;;;;;;7.40;5.45;;;;;;;20.91;49.41;95174.00;5058373;28;20282;-71
2022/06/17 06:45:27;;;;;;;6.47;5.55;;;;;;;20.68;50.50;95179.84;5058298;28;20804;-66
2022/06/17 06:47:55;;;;;;;9.02;5.35;;;;;;;20.82;50.34;95176.09;5056225;28;20271;-68
2022/06/17 06:50:24;;;;;;;8.32;5.50;;;;;;;21.04;49.98;95181.97;5061131;28;20340;-71
2022/06/17 06:52:50;;;;;;;8.02;5.55;;;;;;;21.11;50.07;95179.25;5055371;28;20311;-68
2022/06/17 06:55:16;;;;;;;7.18;5.57;;;;;;;21.06;50.36;95171.03;5060105;28;20291;-65
2022/06/17 06:57:46;;;;;;;8.70;5.05;;;;;;;21.22;49.92;95180.41;5051323;28;20219;-65
2022/06/17 07:00:16;;;;;;;10.27;5.45;;;;;;;21.32;48.86;95170.09;5048057;28;20320;-66
2022/06/17 07:02:41;;;;;;;8.70;5.43;;;;;;;21.35;49.26;95177.69;5052116;28;20304;-65
2022/06/17 07:05:07;;;;;;;8.00;6.55;;;;;;;21.24;48.85;95178.38;5062126;28;20312;-68
2022/06/17 07:07:32;;;;;;;7.75;5.40;;;;;;;21.12;48.78;95176.38;5064499;28;20217;-69
2022/06/17 07:09:58;;;;;;;7.78;6.10;;;;;;;21.19;48.70;95176.31;5057563;28;20244;-66
2022/06/17 07:12:23;;;;;;;9.70;6.00;;;;;;;21.07;48.43;95173.50;5072586;28;20237;-64
2022/06/17 07:14:52;;;;;;;6.03;5.43;;;;;;;21.10;48.82;95172.28;5051543;28;20241;-64
2022/06/17 07:17:17;;;;;;;9.38;6.38;;;;;;;21.16;48.93;95171.41;5048869;28;20481;-64
2022/06/17 07:19:43;;;;;;;9.25;6.30;;;;;;;21.27;48.16;95172.59;5036895;28;20205;-66
2022/06/17 07:22:11;;;;;;;7.22;6.00;;;;;;;21.26;48.10;95177.13;5051392;28;20212;-62
2022/06/17 07:24:36;;;;;;;9.23;6.75;;;;;;;21.28;48.23;95168.91;5063073;28;20212;-66
2022/06/17 07:27:02;;;;;;;9.10;5.95;;;;;;;21.40;47.63;95171.72;5066436;28;20282;-66
2022/06/17 07:29:28;;;;;;;5.90;5.40;;;;;;;21.34;48.45;95162.69;5054279;28;20224;-63
2022/06/17 07:31:53;;;;;;;11.48;5.53;;;;;;;21.27;48.39;95167.22;5056961;28;20239;-61
2022/06/17 07:34:19;;;;;;;5.82;5.32;;;;;;;21.45;47.98;95162.00;5054896;28;20193;-69
2022/06/17 07:42:12;;;;;;;7.10;5.90;;;;;;;21.47;48.54;95159.94;5054232;28;20247;-71
2022/06/17 07:44:37;;;;;;;7.28;5.78;;;;;;;21.49;48.20;95149.00;5053999;28;20221;-70
2022/06/17 07:47:04;;;;;;;8.10;5.82;;;;;;;21.61;47.75;95159.84;5058207;28;20232;-65
2022/06/17 07:49:30;;;;;;;8.38;6.53;;;;;;;21.52;48.03;95157.44;5051559;28;20213;-71
2022/06/17 07:51:56;;;;;;;8.88;7.00;;;;;;;21.52;47.79;95154.78;5059239;28;20278;-66
2022/06/17 07:54:21;;;;;;;6.95;6.35;;;;;;;21.69;48.09;95156.91;5060276;28;20220;-67
2022/06/17 07:56:46;;;;;;;8.50;6.03;;;;;;;21.68;47.64;95148.06;5051028;28;20217;-72
2022/06/17 07:59:12;;;;;;;6.88;6.05;;;;;;;21.78;47.04;95155.59;5049548;28;20232;-65
2022/06/17 08:01:38;;;;;;;9.80;7.03;;;;;;;21.80;47.22;95156.22;5054886;28;20204;-68
2022/06/17 08:04:03;;;;;;;6.85;6.25;;;;;;;21.70;47.05;95150.50;5062343;28;20196;-66
2022/06/17 08:06:29;;;;;;;7.38;6.65;;;;;;;21.68;46.55;95148.06;5058856;28;20262;-70
2022/06/17 08:08:54;;;;;;;8.18;6.38;;;;;;;21.68;47.80;95148.06;5057011;28;20248;-70
2022/06/17 08:11:20;;;;;;;7.22;6.53;;;;;;;21.85;47.31;95153.69;5058646;28;20359;-67
2022/06/17 08:13:45;;;;;;;7.75;6.88;;;;;;;22.03;46.80;95145.72;5070272;28;20239;-70
2022/06/17 08:16:13;;;;;;;7.40;6.10;;;;;;;22.10;46.53;95142.16;5055449;28;20201;-67
2022/06/17 08:18:40;;;;;;;8.85;7.55;;;;;;;22.20;46.69;95150.53;5057607;28;20270;-63
2022/06/17 08:21:06;;;;;;;8.00;6.32;;;;;;;22.12;47.16;95142.75;5061357;28;20254;-63
2022/06/17 08:23:32;;;;;;;7.22;5.75;;;;;;;22.06;48.13;95131.06;5058008;28;20225;-62
2022/06/17 08:25:58;;;;;;;6.95;6.10;;;;;;;22.37;46.45;95135.53;5048510;28;20943;-67
2022/06/17 08:28:24;;;;;;;10.32;6.82;;;;;;;22.39;46.62;95128.06;5037512;28;20233;-64
2022/06/17 08:30:52;;;;;;;8.70;6.50;;;;;;;22.40;47.17;95127.06;5039322;28;20279;-68
2022/06/17 08:33:28;;;;;;;7.15;6.47;;;;;;;22.54;47.04;95119.69;5037288;28;20218;-66
2022/06/17 08:36:06;;;;;;;9.23;6.80;;;;;;;22.56;48.12;95116.75;5037938;28;20245;-64
2022/06/17 08:38:34;;;;;;;7.32;6.50;;;;;;;22.72;47.36;95118.88;5034383;28;20320;-69
2022/06/17 08:41:10;;;;;;;7.32;6.63;;;;;;;22.58;46.64;95114.69;5041543;28;20229;-66
2022/06/17 08:43:56;;;;;;;7.65;6.93;;;;;;;22.65;47.03;95118.13;5031335;28;20307;-67
2022/06/17 08:46:21;;;;;;;7.22;6.55;;;;;;;22.67;46.93;95113.34;5050799;28;20201;-61
2022/06/17 08:49:20;;;;;;;7.45;6.75;;;;;;;22.72;46.95;95115.34;5036089;28;20225;-63
2022/06/17 08:52:07;;;;;;;7.82;7.05;;;;;;;22.75;46.79;95113.03;5049031;28;20229;-65
2022/06/17 08:54:43;;;;;;;8.05;7.32;;;;;;;22.79;46.39;95106.19;5054893;28;20332;-67
2022/06/17 08:57:26;;;;;;;8.18;7.38;;;;;;;22.88;46.11;95109.34;5052708;28;20248;-66
2022/06/17 09:00:05;;;;;;;11.48;7.75;;;;;;;22.97;46.00;95108.03;5069786;28;20220;-64
2022/06/17 09:02:44;;;;;;;8.05;7.05;;;;;;;23.04;46.94;95111.47;5069215;28;20302;-65
2022/06/17 09:05:43;;;;;;;9.57;7.40;;;;;;;23.19;45.76;95111.03;5051296;28;20228;-67
2022/06/17 09:08:27;;;;;;;8.60;7.78;;;;;;;23.17;46.53;95113.13;5065955;28;20236;-66
2022/06/17 09:11:12;;;;;;;8.85;7.93;;;;;;;23.20;47.02;95107.31;5054387;28;20259;-70
2022/06/17 09:13:43;;;;;;;7.75;7.00;;;;;;;23.31;48.10;95116.47;5053971;28;20270;-67
2022/06/17 09:16:27;;;;;;;8.10;7.00;;;;;;;23.44;46.43;95110.91;5055421;28;20208;-68
2022/06/17 09:19:02;;;;;;;7.97;7.18;;;;;;;23.46;46.40;95116.03;5054357;28;20212;-64
2022/06/17 09:21:31;;;;;;;8.88;7.97;;;;;;;23.64;45.29;95115.94;5053734;28;20224;-64
2022/06/17 09:24:22;;;;;;;7.57;6.88;;;;;;;23.41;45.20;95108.66;5054762;28;20213;-66
2022/06/17 09:27:04;;;;;;;7.32;6.72;;;;;;;23.41;47.05;95105.97;5047306;28;20272;-65
2022/06/17 09:29:39;;;;;;;8.38;5.95;;;;;;;23.67;45.41;95112.78;5037460;28;20225;-70
2022/06/17 09:32:12;;;;;;;8.32;7.18;;;;;;;23.77;44.06;95107.72;5050630;28;20523;-69
2022/06/17 09:34:50;;;;;;;8.15;7.07;;;;;;;23.95;44.27;95098.75;5058153;28;20274;-68
2022/06/17 09:37:46;;;;;;;9.95;7.32;;;;;;;24.05;43.93;95108.88;5063630;28;20201;-65
2022/06/17 09:40:22;;;;;;;9.65;7.32;;;;;;;24.14;42.34;95104.81;5039623;28;20228;-67
2022/06/17 09:42:56;;;;;;;10.00;6.88;;;;;;;24.16;42.60;95099.19;5035513;28;20245;-67
2022/06/17 09:45:33;;;;;;;8.32;6.75;;;;;;;24.36;43.20;95102.34;5066640;28;20234;-65
2022/06/17 09:48:05;;;;;;;9.52;6.70;;;;;;;24.47;42.99;95089.97;5061157;28;20251;-66
2022/06/17 09:50:43;;;;;;;8.80;7.20;;;;;;;24.64;41.05;95090.88;5058528;28;20220;-69
2022/06/17 09:53:17;;;;;;;7.68;6.57;;;;;;;24.69;41.18;95092.00;5050666;28;20224;-65
2022/06/17 09:55:49;;;;;;;9.98;7.43;;;;;;;24.72;39.76;95086.16;5055840;28;20328;-70
2022/06/17 09:58:41;;;;;;;7.95;6.97;;;;;;;24.80;40.43;95093.84;5055932;28;20189;-67
2022/06/17 10:01:07;;;;;;;9.45;7.80;;;;;;;24.89;40.18;95099.69;5074981;28;20274;-68
2022/06/17 10:03:35;;;;;;;11.43;6.55;;;;;;;24.92;40.10;95097.31;5063638;28;20217;-67
2022/06/17 10:06:52;;;;;;;7.65;6.60;;;;;;;25.07;40.19;95092.25;5038927;28;20216;-69
2022/06/17 10:09:38;;;;;;;8.15;4.80;;;;;;;25.22;34.47;95085.53;5022505;28;20623;-69
2022/06/17 10:12:34;;;;;;;4.90;3.95;;;;;;;25.36;33.86;95091.41;5039391;28;20233;-70
2022/06/17 10:15:17;;;;;;;5.35;4.75;;;;;;;25.64;34.15;95087.88;5023901;28;20229;-66
2022/06/17 10:20:59;;;;;;;6.50;4.88;;;;;;;25.88;32.61;95092.06;4972233;28;20228;-63
2022/06/17 10:23:46;;;;;;;5.70;4.50;;;;;;;26.09;32.04;95087.81;4952444;28;20224;-65
2022/06/17 10:26:14;;;;;;;5.35;4.50;;;;;;;26.27;32.35;95081.31;4970092;28;20240;-67
2022/06/17 10:29:06;;;;;;;5.85;5.25;;;;;;;26.34;30.47;95089.22;4985501;28;20219;-68
2022/06/17 10:31:31;;;;;;;6.32;5.22;;;;;;;26.32;30.68;95089.47;4968992;28;20246;-65
2022/06/17 10:34:11;;;;;;;6.35;5.75;;;;;;;26.18;32.71;95070.13;4985501;28;20267;-66
2022/06/17 10:36:37;;;;;;;10.35;5.80;;;;;;;26.28;32.54;95082.94;4983528;28;20261;-64
2022/06/17 10:39:03;;;;;;;7.10;5.25;;;;;;;26.54;32.37;95069.81;4987098;28;20372;-65
2022/06/17 10:41:30;;;;;;;12.45;5.38;;;;;;;26.55;33.20;95076.88;4986285;28;20223;-67
2022/06/17 10:43:56;;;;;;;5.97;5.30;;;;;;;26.67;32.94;95074.03;4989050;28;20230;-67
2022/06/17 10:46:25;;;;;;;5.72;5.32;;;;;;;26.94;32.17;95066.78;4993243;28;20199;-67
2022/06/17 10:49:09;;;;;;;7.50;5.45;;;;;;;26.97;31.46;95070.88;4993432;28;20232;-67
2022/06/17 10:51:35;;;;;;;6.07;5.50;;;;;;;26.99;30.75;95076.81;4988858;28;20234;-67
2022/06/17 10:54:05;;;;;;;5.55;5.15;;;;;;;27.05;29.98;95071.25;4993021;28;20237;-64
2022/06/17 10:56:40;;;;;;;5.30;4.80;;;;;;;26.98;31.76;95073.31;4995908;28;20542;-68
2022/06/17 10:59:10;;;;;;;5.95;5.30;;;;;;;27.17;30.94;95073.81;5031504;28;20221;-72
2022/06/17 11:01:47;;;;;;;4.97;4.57;;;;;;;27.39;30.12;95073.75;5047481;28;20194;-64
2022/06/17 11:04:18;;;;;;;5.22;4.80;;;;;;;27.46;28.83;95081.66;5034073;28;20260;-65
2022/06/17 11:06:54;;;;;;;7.07;4.90;;;;;;;27.58;28.57;95078.78;5033785;28;20266;-68
2022/06/17 11:09:32;;;;;;;5.47;5.03;;;;;;;27.66;28.57;95083.72;5062393;28;20213;-67
2022/06/17 11:12:03;;;;;;;7.40;5.22;;;;;;;27.40;30.30;95077.28;5052708;28;20242;-70
2022/06/17 11:14:35;;;;;;;5.57;5.07;;;;;;;27.31;31.50;95074.22;5072394;27;20224;-63
2022/06/17 11:17:08;;;;;;;5.47;4.50;;;;;;;27.37;30.91;95066.97;5052236;28;20239;-69
2022/06/17 11:19:38;;;;;;;5.75;5.18;;;;;;;27.83;32.07;95062.03;5053043;28;20267;-64
2022/06/17 11:22:04;;;;;;;6.75;5.70;;;;;;;27.66;31.99;95076.41;5053280;28;20196;-71
2022/06/17 11:24:40;;;;;;;6.50;5.95;;;;;;;28.07;32.38;95060.56;5054870;28;20283;-66
2022/06/17 11:27:27;;;;;;;6.80;5.68;;;;;;;27.82;31.86;95065.78;5052732;28;20255;-66
2022/06/17 11:29:55;;;;;;;6.53;6.03;;;;;;;27.82;33.24;95063.06;5070818;27;20232;-64
2022/06/17 11:32:21;;;;;;;7.43;6.10;;;;;;;27.40;33.15;95055.66;5059786;28;20220;-70
2022/06/17 11:35:01;;;;;;;8.60;6.03;;;;;;;27.64;33.84;95059.69;5062629;28;20213;-65
2022/06/17 11:37:32;;;;;;;7.20;6.60;;;;;;;27.45;33.70;95061.13;5051308;28;20250;-67
2022/06/17 11:40:07;;;;;;;7.28;6.70;;;;;;;27.36;34.63;95066.16;5058784;28;20251;-71
2022/06/17 11:42:33;;;;;;;7.55;6.95;;;;;;;27.12;34.71;95060.25;5054328;28;20224;-63
2022/06/17 11:45:01;;;;;;;7.40;6.75;;;;;;;27.32;33.91;95058.84;5054865;28;20248;-70
2022/06/17 11:47:30;;;;;;;8.93;7.13;;;;;;;27.13;34.18;95050.25;5051000;28;20253;-63
2022/06/17 11:50:00;;;;;;;7.07;6.38;;;;;;;27.03;34.56;95051.78;5038798;28;20217;-65
2022/06/17 11:52:30;;;;;;;7.10;6.55;;;;;;;27.06;33.81;95053.16;5033497;28;20240;-65
2022/06/17 11:54:57;;;;;;;7.80;7.20;;;;;;;27.11;34.54;95044.31;5036884;28;20230;-70
2022/06/17 11:57:32;;;;;;;7.85;7.18;;;;;;;27.34;33.94;95051.31;5037788;28;20248;-68
2022/06/17 12:00:03;;;;;;;7.45;6.85;;;;;;;27.23;34.87;95037.69;5031748;28;20521;-62
2022/06/17 12:02:29;;;;;;;7.53;6.85;;;;;;;27.27;35.28;95041.53;5050269;28;20217;-70
2022/06/17 12:05:06;;;;;;;8.45;7.65;;;;;;;27.40;35.10;95034.06;5034453;28;21171;-65
2022/06/17 12:07:44;;;;;;;7.25;6.55;;;;;;;26.86;36.44;95040.25;5038355;28;20221;-66
2022/06/17 12:10:41;;;;;;;6.95;6.10;;;;;;;26.84;36.86;95043.22;5036414;28;20250;-68
2022/06/17 12:13:25;;;;;;;8.00;7.20;;;;;;;27.26;36.17;95037.22;5046221;28;20246;-72
2022/06/17 12:16:14;;;;;;;7.65;6.85;;;;;;;27.78;35.22;95038.44;5032940;28;20271;-66
2022/06/17 12:18:48;;;;;;;6.57;5.75;;;;;;;28.18;33.63;95028.19;5031470;28;20233;-67
2022/06/17 12:21:24;;;;;;;6.60;5.90;;;;;;;28.74;32.36;95031.97;5045557;28;20239;-67
2022/06/17 12:24:00;;;;;;;6.72;5.93;;;;;;;28.99;31.41;95028.53;5052011;28;20229;-70
2022/06/17 12:27:04;;;;;;;7.80;5.40;;;;;;;28.95;29.74;95019.31;5050940;28;20216;-68
2022/06/17 12:29:33;;;;;;;5.57;5.07;;;;;;;29.00;30.65;95024.75;5073013;28;20271;-67
2022/06/17 12:32:05;;;;;;;5.38;4.97;;;;;;;28.97;28.70;95014.44;5071273;28;20237;-66
2022/06/17 12:34:36;;;;;;;5.32;4.47;;;;;;;29.03;28.99;95013.38;5079035;28;20250;-66
2022/06/17 12:37:22;;;;;;;4.85;4.40;;;;;;;28.84;29.13;95012.25;5051908;28;20225;-70
2022/06/17 12:40:13;;;;;;;4.93;4.35;;;;;;;28.65;30.33;95005.69;5039332;28;20259;-66
2022/06/17 12:42:57;;;;;;;5.45;4.88;;;;;;;29.03;28.29;95013.38;4961513;28;20239;-65
2022/06/17 12:45:34;;;;;;;5.38;4.90;;;;;;;29.33;28.44;95014.53;4977910;28;20227;-68
2022/06/17 12:48:07;;;;;;;4.57;4.18;;;;;;;29.14;27.70;95008.84;4941342;28;20228;-66
2022/06/17 12:54:18;;;;;;;5.20;3.90;;;;;;;29.74;29.06;95011.03;4960913;28;20254;-66
2022/06/17 12:56:59;;;;;;;4.90;4.45;;;;;;;30.39;28.54;95016.63;4948661;28;20302;-67
2022/06/17 13:00:03;;;;;;;4.47;4.18;;;;;;;30.78;26.62;95005.88;4964412;28;20250;-67
2022/06/17 13:02:40;;;;;;;4.32;4.00;;;;;;;30.70;25.09;95007.28;4902093;29;20232;-68
2022/06/17 13:05:22;;;;;;;4.28;3.97;;;;;;;30.28;24.53;95019.34;4880191;29;20301;-65
2022/06/17 13:08:29;;;;;;;4.13;3.83;;;;;;;30.15;26.00;95003.63;4870070;29;20234;-64
2022/06/17 13:11:08;;;;;;;4.97;3.92;;;;;;;30.98;25.81;94991.41;4902993;29;20281;-73
2022/06/17 13:13:50;;;;;;;3.97;3.67;;;;;;;30.76;23.98;94998.00;4903951;29;20316;-66
2022/06/17 13:16:29;;;;;;;4.22;3.83;;;;;;;30.75;24.81;95001.81;4906073;29;20237;-67
2022/06/17 13:19:03;;;;;;;4.32;4.03;;;;;;;30.41;26.03;94998.16;4909618;28;20222;-63
2022/06/17 13:22:13;;;;;;;4.35;3.97;;;;;;;31.33;25.97;94998.50;4998881;28;20235;-63
2022/06/17 13:24:46;;;;;;;4.85;3.70;;;;;;;32.28;23.92;94993.59;4981879;28;20226;-68
2022/06/17 13:27:37;;;;;;;4.50;4.10;;;;;;;32.67;22.78;94993.44;4998428;28;20223;-65
2022/06/17 13:30:15;;;;;;;3.60;3.33;;;;;;;32.13;23.43;94985.59;4982441;28;20365;-69
2022/06/17 13:32:44;;;;;;;4.80;3.75;;;;;;;32.13;22.52;94988.31;5000546;28;20290;-63
2022/06/17 13:35:16;;;;;;;3.38;3.13;;;;;;;31.57;22.10;94995.91;5001963;28;20234;-69
2022/06/17 13:37:58;;;;;;;4.18;3.88;;;;;;;30.55;23.64;94989.16;5000920;28;20237;-66
2022/06/17 13:40:33;;;;;;;4.35;3.95;;;;;;;29.59;24.92;94995.56;5024346;28;20214;-66
2022/06/17 13:43:06;;;;;;;4.28;3.88;;;;;;;29.67;25.69;95006.72;5020214;28;20232;-67
2022/06/17 13:45:45;;;;;;;4.28;3.88;;;;;;;30.11;25.10;94999.88;5034510;28;20240;-71
2022/06/17 13:48:11;;;;;;;4.50;4.10;;;;;;;30.40;24.21;94991.94;5047496;28;20228;-64
2022/06/17 13:50:46;;;;;;;4.10;3.80;;;;;;;30.74;23.44;94986.63;5052393;28;20256;-68
2022/06/17 13:53:17;;;;;;;4.18;3.40;;;;;;;30.97;22.91;94987.06;5061752;28;20228;-67
2022/06/17 13:56:00;;;;;;;4.15;3.67;;;;;;;31.38;23.66;94984.09;5060634;28;20205;-66
2022/06/17 13:58:33;;;;;;;4.57;3.78;;;;;;;31.44;23.91;94987.59;5051050;28;20625;-66
2022/06/17 14:01:17;;;;;;;3.67;3.42;;;;;;;30.66;26.08;94984.50;5065049;28;20296;-72
2022/06/17 14:03:56;;;;;;;4.05;3.70;;;;;;;29.33;27.69;94987.44;5047910;28;20245;-65
2022/06/17 14:06:56;;;;;;;5.68;4.20;;;;;;;29.10;28.30;95002.31;5052718;28;20224;-65
2022/06/17 14:09:36;;;;;;;4.30;3.95;;;;;;;29.42;28.16;95001.25;5049732;28;20237;-66
2022/06/17 14:12:02;;;;;;;4.10;3.70;;;;;;;29.52;28.93;95001.28;5055816;28;20232;-68
2022/06/17 14:14:31;;;;;;;3.97;3.63;;;;;;;30.00;26.78;94996.38;5056222;28;20255;-65
2022/06/17 14:17:17;;;;;;;7.18;4.20;;;;;;;29.91;26.85;94998.00;5059455;28;20250;-65
2022/06/17 14:19:47;;;;;;;5.35;3.35;;;;;;;30.11;26.57;94995.25;5060758;28;20217;-69
2022/06/17 14:22:36;;;;;;;6.72;3.70;;;;;;;30.32;26.62;94992.50;5054783;28;20644;-68
2022/06/17 14:25:14;;;;;;;3.63;3.42;;;;;;;30.59;25.25;94994.84;5076628;28;20232;-67
2022/06/17 14:27:42;;;;;;;4.78;3.88;;;;;;;31.25;25.09;95001.00;5053079;28;20231;-71
2022/06/17 14:30:11;;;;;;;4.88;3.67;;;;;;;30.97;26.24;94990.59;5056532;28;20278;-67
2022/06/17 14:32:46;;;;;;;4.82;3.60;;;;;;;30.63;26.78;94984.22;5068005;28;20225;-66
2022/06/17 14:35:30;;;;;;;4.97;3.92;;;;;;;30.41;27.10;94973.75;5053789;28;20247;-67
2022/06/17 14:38:13;;;;;;;4.95;3.75;;;;;;;29.95;27.19;94976.59;5051130;28;20224;-70
2022/06/17 14:44:03;;;;;;;5.00;3.90;;;;;;;30.56;26.83;94973.69;5051015;28;20293;-71
2022/06/17 14:46:49;;;;;;;6.63;3.75;;;;;;;31.04;25.56;94974.00;5056593;28;20746;-71
2022/06/17 14:49:41;;;;;;;4.60;4.20;;;;;;;31.55;25.10;94970.09;5033623;28;20229;-67
2022/06/17 14:52:19;;;;;;;5.70;3.70;;;;;;;32.92;23.89;94973.22;5050505;28;20225;-65
2022/06/17 14:54:57;;;;;;;4.47;3.58;;;;;;;33.67;22.59;94976.22;5051210;28;20231;-69
2022/06/17 14:57:25;;;;;;;3.80;3.50;;;;;;;33.55;23.42;94973.97;5052633;28;20544;-65
2022/06/17 15:00:08;;;;;;;5.25;3.30;;;;;;;31.97;24.21;94972.19;5052633;28;20233;-70
2022/06/17 15:02:42;;;;;;;3.88;3.58;;;;;;;31.41;24.77;94980.81;5066794;28;20225;-69
2022/06/17 15:05:23;;;;;;;4.90;3.63;;;;;;;33.44;21.65;94970.56;5057907;28;20223;-71
2022/06/17 15:07:53;;;;;;;3.78;3.47;;;;;;;33.00;22.36;94969.03;5056051;28;20216;-72
2022/06/17 15:10:20;;;;;;;4.25;3.40;;;;;;;31.14;24.41;94973.09;5052677;28;20235;-69
2022/06/17 15:12:57;;;;;;;5.18;3.53;;;;;;;30.35;26.49;94961.31;5052060;28;20248;-71
2022/06/17 15:15:27;;;;;;;7.22;3.88;;;;;;;29.05;28.39;94974.44;5051507;28;20231;-70
2022/06/17 15:18:04;;;;;;;4.15;3.75;;;;;;;28.41;29.92;94978.25;5055270;28;20225;-67
2022/06/17 15:20:34;;;;;;;4.32;3.78;;;;;;;28.14;30.55;94976.53;5053232;28;20248;-71
2022/06/17 15:23:14;;;;;;;5.18;4.13;;;;;;;28.14;30.06;94985.44;5051561;28;20224;-71
2022/06/17 15:25:50;;;;;;;4.35;4.00;;;;;;;27.31;31.69;94987.03;5054530;28;20208;-70
2022/06/17 15:28:36;;;;;;;6.18;4.25;;;;;;;27.42;31.40;94994.13;5053536;28;20261;-64
2022/06/17 15:31:19;;;;;;;5.70;5.10;;;;;;;26.63;33.43;94998.22;5052420;28;20241;-65
2022/06/17 15:33:52;;;;;;;4.72;4.32;;;;;;;26.28;34.60;95010.16;5053363;28;20315;-65
2022/06/17 15:36:20;;;;;;;6.88;4.10;;;;;;;26.69;34.23;95013.38;5069895;28;20228;-64
2022/06/17 15:39:01;;;;;;;4.22;3.92;;;;;;;26.47;34.47;95028.75;5069770;28;20255;-72
2022/06/17 15:41:33;;;;;;;4.22;3.83;;;;;;;26.58;34.86;95055.59;5052560;28;20224;-71
2022/06/17 15:44:01;;;;;;;10.68;4.10;;;;;;;26.12;35.99;95070.31;5051217;28;20224;-65
2022/06/17 15:46:28;;;;;;;9.75;4.38;;;;;;;25.44;37.85;95070.31;5051699;28;20628;-70
2022/06/17 15:48:59;;;;;;;9.90;3.78;;;;;;;25.42;38.54;95091.28;5049699;28;20414;-73
2022/06/17 15:51:25;;;;;;;6.78;4.32;;;;;;;25.23;39.67;95090.69;5068358;28;20260;-63
2022/06/17 15:53:50;;;;;;;5.15;4.65;;;;;;;25.06;40.69;95103.22;5060322;28;20319;-66
2022/06/17 15:56:18;;;;;;;5.20;4.78;;;;;;;25.06;41.46;95112.13;5058149;28;20304;-65
2022/06/17 15:58:45;;;;;;;6.40;5.80;;;;;;;24.72;43.61;95118.41;5058395;28;20273;-63
2022/06/17 16:01:15;;;;;;;5.93;4.70;;;;;;;24.46;44.88;95134.03;5057040;28;20231;-62
2022/06/17 16:03:51;;;;;;;31.75;6.13;;;;;;;24.27;46.97;95146.75;5052205;28;20315;-65
2022/06/17 16:06:27;;;;;;;7.40;5.50;;;;;;;24.17;50.84;95158.06;5065769;28;20221;-65
2022/06/17 16:08:52;;;;;;;6.60;5.72;;;;;;;24.11;51.01;95168.91;5057326;28;20224;-64
2022/06/17 16:11:31;;;;;;;5.75;5.18;;;;;;;23.78;52.59;95179.13;5061126;28;20222;-64
2022/06/17 16:14:23;;;;;;;6.82;6.13;;;;;;;23.66;52.82;95169.41;5051331;28;20243;-66
2022/06/17 16:16:51;;;;;;;6.32;5.68;;;;;;;23.63;52.25;95159.94;5034253;28;20226;-64
2022/06/17 16:19:19;;;;;;;5.82;5.22;;;;;;;23.40;51.19;95167.94;5033236;28;20209;-62
2022/06/17 16:22:00;;;;;;;6.63;6.03;;;;;;;23.26;53.12;95164.63;5031507;28;20283;-63
2022/06/17 16:24:26;;;;;;;5.43;5.00;;;;;;;23.62;52.59;95147.56;5019732;28;20225;-63
2022/06/17 16:26:55;;;;;;;5.43;5.03;;;;;;;23.66;51.38;95131.84;5034013;28;20229;-64
2022/06/17 16:29:42;;;;;;;5.40;5.00;;;;;;;23.64;51.97;95124.00;5038458;28;20310;-63
2022/06/17 16:32:20;;;;;;;4.10;3.80;;;;;;;23.87;49.57;95125.09;5040270;28;20221;-64
2022/06/17 16:34:45;;;;;;;5.18;4.68;;;;;;;23.73;51.54;95114.56;5024644;28;20209;-66
2022/06/17 16:37:42;;;;;;;5.65;4.90;;;;;;;23.82;50.71;95116.91;5020943;28;20291;-65
2022/06/17 16:46:25;;;;;;;5.55;5.05;;;;;;;23.51;50.53;95106.22;5034636;28;20428;-65
2022/06/17 16:48:59;;;;;;;6.07;5.50;;;;;;;23.41;51.41;95111.34;5023822;28;20226;-63
2022/06/17 16:51:26;;;;;;;5.57;5.18;;;;;;;23.28;50.67;95107.00;5020945;28;20241;-64
2022/06/17 16:53:52;;;;;;;5.13;4.35;;;;;;;23.29;50.19;95105.94;5044042;28;20248;-65
2022/06/17 16:56:23;;;;;;;5.47;4.55;;;;;;;23.19;50.48;95094.13;5049492;28;20414;-64
2022/06/17 16:58:49;;;;;;;5.20;4.70;;;;;;;23.15;51.14;95101.81;5049877;28;20224;-63
2022/06/17 17:01:16;;;;;;;5.10;4.70;;;;;;;23.46;49.66;95100.72;5053117;28;20244;-65
2022/06/17 17:03:41;;;;;;;5.28;4.88;;;;;;;23.27;52.34;95097.31;5060351;28;20304;-64
2022/06/17 17:06:07;;;;;;;5.13;4.63;;;;;;;23.18;51.71;95092.50;5060738;28;20315;-65
2022/06/17 17:08:33;;;;;;;4.95;4.55;;;;;;;23.07;51.42;95089.56;5054762;28;20224;-66
2022/06/17 17:10:58;;;;;;;5.60;5.10;;;;;;;22.99;51.30;95092.56;5048848;28;20232;-66
2022/06/17 17:13:24;;;;;;;5.63;5.18;;;;;;;22.80;52.55;95098.94;5058786;28;20217;-67
2022/06/17 17:15:49;;;;;;;8.07;5.68;;;;;;;22.50;53.52;95101.59;5055692;28;20247;-66
2022/06/17 17:18:15;;;;;;;8.18;6.25;;;;;;;22.39;56.83;95098.59;5061099;28;20208;-65
2022/06/17 17:20:54;;;;;;;6.95;5.72;;;;;;;22.45;55.25;95099.56;5062128;28;20220;-68
2022/06/17 17:23:23;;;;;;;7.45;5.82;;;;;;;22.39;54.47;95103.97;5073795;28;20362;-64
2022/06/17 17:25:52;;;;;;;9.75;6.90;;;;;;;22.20;55.16;95107.69;5088919;28;20366;-67
2022/06/17 17:28:20;;;;;;;7.93;5.57;;;;;;;22.11;55.73;95109.00;5055719;28;20254;-66
2022/06/17 17:30:49;;;;;;;8.82;6.82;;;;;;;21.84;58.68;95103.88;5072925;28;20238;-63
2022/06/17 17:33:15;;;;;;;8.52;6.43;;;;;;;22.00;58.86;95111.34;5056709;28;20247;-67
2022/06/17 17:35:41;;;;;;;6.65;6.05;;;;;;;21.75;60.60;95113.22;5050907;28;20224;-65